Time;durP1;ratioP1;P1;durP2;ratioP2;P2;SDS_P1;SDS_P2;PMS_P1;PMS_P2;Temp;Humidity;BMP_temperature;BMP_pressure;BME280_temperature;BME280_humidity;BME280_pressure;Samples;Min_cycle;Max_cycle;Signal;HPM_P1;HPM_P2
2024/03/25 00:00:36;;;;;;;12.13;2.83;;;;;;;6.34;55.15;99055.72;10429721;28;20118;-58
2024/03/25 00:05:37;;;;;;;4.20;1.38;;;;;;;6.42;55.02;99065.66;10426788;28;20049;-58
2024/03/25 00:10:38;;;;;;;5.68;1.38;;;;;;;6.45;55.06;99065.50;10445779;28;20075;-58
2024/03/25 00:15:39;;;;;;;4.60;1.88;;;;;;;6.45;54.99;99068.91;10427699;28;20115;-58
2024/03/25 00:20:40;;;;;;;4.80;1.92;;;;;;;6.41;54.83;99067.41;10426565;28;20079;-59
2024/03/25 00:25:41;;;;;;;6.93;1.63;;;;;;;6.58;54.85;99067.28;10426597;28;20037;-59
2024/03/25 00:30:42;;;;;;;4.38;1.60;;;;;;;6.61;54.85;99069.72;10430067;28;20065;-59
2024/03/25 00:35:45;;;;;;;4.95;2.08;;;;;;;6.63;54.88;99065.28;10428569;28;20424;-59
2024/03/25 00:40:46;;;;;;;6.55;1.35;;;;;;;6.53;54.98;99069.31;10411384;28;20045;-59
2024/03/25 00:45:47;;;;;;;5.28;1.40;;;;;;;6.50;55.12;99068.66;10427533;28;20083;-59
2024/03/25 00:50:49;;;;;;;5.50;1.85;;;;;;;6.50;55.23;99068.66;10427065;28;20052;-59
2024/03/25 00:55:50;;;;;;;4.72;1.65;;;;;;;6.38;55.56;99065.00;10428646;28;20053;-59
2024/03/25 01:00:51;;;;;;;5.47;2.30;;;;;;;6.43;55.27;99067.34;10414638;28;20072;-59
2024/03/25 01:05:52;;;;;;;5.03;1.35;;;;;;;6.41;55.04;99058.81;10428069;28;20052;-59
2024/03/25 01:10:53;;;;;;;2.33;1.50;;;;;;;6.34;55.20;99066.09;10425458;28;20622;-63
2024/03/25 01:15:54;;;;;;;3.30;1.70;;;;;;;6.37;55.11;99063.31;10426770;28;20056;-59
2024/03/25 01:20:55;;;;;;;7.80;1.88;;;;;;;6.33;55.24;99067.00;10410082;28;20402;-59
2024/03/25 01:25:55;;;;;;;4.70;1.77;;;;;;;6.19;55.04;99070.34;10437469;28;20067;-59
2024/03/25 01:30:56;;;;;;;3.90;1.35;;;;;;;6.22;55.14;99065.00;10433224;28;20052;-60
2024/03/25 01:35:57;;;;;;;4.35;1.63;;;;;;;6.22;55.28;99065.00;10432657;28;20059;-59
2024/03/25 01:41:12;;;;;;;4.88;1.70;;;;;;;6.13;55.65;99059.47;10431860;28;20045;-59
2024/03/25 01:46:13;;;;;;;9.77;1.88;;;;;;;6.01;55.74;99062.72;10419846;28;20167;-59
2024/03/25 01:51:17;;;;;;;9.00;1.42;;;;;;;6.01;55.83;99073.13;10431207;28;20041;-58
2024/03/25 01:56:19;;;;;;;10.20;1.67;;;;;;;6.01;56.03;99078.31;10431899;28;20068;-59
2024/03/25 02:01:20;;;;;;;3.38;1.27;;;;;;;6.13;56.30;99075.88;10401003;28;20075;-59
2024/03/25 02:06:23;;;;;;;7.68;2.10;;;;;;;6.08;56.65;99077.88;10416361;28;20041;-59
2024/03/25 02:11:26;;;;;;;4.45;1.33;;;;;;;6.19;56.62;99072.09;10434242;28;20056;-59
2024/03/25 02:16:27;;;;;;;4.50;1.48;;;;;;;6.30;56.57;99074.97;10383212;28;20052;-59
2024/03/25 02:21:28;;;;;;;3.50;1.42;;;;;;;6.16;56.51;99088.69;10426391;28;20049;-59
2024/03/25 02:26:29;;;;;;;4.13;1.30;;;;;;;6.11;57.00;99085.50;10425414;28;20049;-59
2024/03/25 02:31:30;;;;;;;6.80;2.08;;;;;;;6.01;57.22;99092.13;10429396;28;20532;-59
2024/03/25 02:36:31;;;;;;;2.45;1.42;;;;;;;5.99;57.40;99087.94;10429186;28;20056;-59
2024/03/25 02:41:34;;;;;;;4.18;1.75;;;;;;;5.67;58.51;99097.47;10410679;28;20137;-59
2024/03/25 02:46:35;;;;;;;10.73;2.20;;;;;;;5.39;59.10;99089.44;10424509;28;20080;-59
2024/03/25 02:51:36;;;;;;;5.85;1.60;;;;;;;5.48;58.69;99095.00;10411040;28;20052;-59
2024/03/25 02:56:39;;;;;;;4.93;1.48;;;;;;;5.53;58.66;99105.13;10426765;28;20535;-59
2024/03/25 03:01:40;;;;;;;5.35;1.67;;;;;;;5.49;58.94;99101.03;10428142;28;20049;-59
2024/03/25 03:06:41;;;;;;;2.42;1.33;;;;;;;5.46;59.09;99104.59;10424524;28;20064;-59
2024/03/25 03:11:42;;;;;;;4.15;2.00;;;;;;;5.55;59.00;99103.28;10427623;28;20056;-59
2024/03/25 03:16:43;;;;;;;16.88;1.58;;;;;;;5.32;59.22;99104.47;10426118;28;20057;-59
2024/03/25 03:21:45;;;;;;;6.53;1.48;;;;;;;5.38;59.72;99105.91;10423858;28;20045;-59
2024/03/25 03:26:45;;;;;;;7.22;1.92;;;;;;;5.31;59.81;99109.75;10427800;28;20048;-59
2024/03/25 03:31:46;;;;;;;7.82;2.17;;;;;;;5.30;59.67;99095.94;10425147;28;20118;-60
2024/03/25 03:36:47;;;;;;;4.10;1.33;;;;;;;5.34;59.42;99100.06;10427877;28;20592;-59
2024/03/25 03:41:48;;;;;;;4.47;1.80;;;;;;;5.36;59.17;99089.59;10426440;28;20052;-60
2024/03/25 03:46:49;;;;;;;6.20;1.55;;;;;;;5.42;59.05;99089.28;10410661;28;20049;-59
2024/03/25 03:51:50;;;;;;;7.90;2.58;;;;;;;5.42;59.01;99091.88;10422830;28;20052;-60
2024/03/25 03:56:51;;;;;;;6.68;1.85;;;;;;;5.43;58.98;99091.78;10423886;28;20044;-59
2024/03/25 04:01:52;;;;;;;3.75;1.60;;;;;;;5.28;58.95;99090.00;10408005;28;20082;-59
2024/03/25 04:06:53;;;;;;;3.95;1.42;;;;;;;5.10;58.96;99092.69;10425251;28;20563;-60
2024/03/25 04:11:55;;;;;;;1.70;0.90;;;;;;;4.94;59.03;99099.56;10425201;28;20061;-59
2024/03/25 04:16:55;;;;;;;9.13;1.70;;;;;;;4.77;59.03;99092.63;10407773;28;20131;-59
2024/03/25 04:21:57;;;;;;;3.28;1.40;;;;;;;4.66;59.25;99087.97;10408079;28;20048;-59
2024/03/25 04:26:57;;;;;;;8.38;1.88;;;;;;;4.55;59.21;99087.69;10425767;28;20053;-59
2024/03/25 04:31:58;;;;;;;4.00;1.63;;;;;;;4.41;59.61;99089.25;10406774;28;20111;-59
2024/03/25 04:36:59;;;;;;;10.95;2.05;;;;;;;4.32;59.69;99095.69;10409213;28;20045;-59
2024/03/25 04:42:00;;;;;;;3.75;1.63;;;;;;;4.31;59.63;99098.38;10427362;28;20087;-59
2024/03/25 04:47:01;;;;;;;2.50;1.58;;;;;;;4.22;59.70;99104.81;10425539;28;20049;-59
2024/03/25 04:52:03;;;;;;;3.60;1.80;;;;;;;4.18;59.92;99103.28;10421210;28;20091;-60
2024/03/25 04:57:05;;;;;;;4.05;1.77;;;;;;;4.11;60.13;99108.81;10429170;28;20051;-59
2024/03/25 05:02:08;;;;;;;4.45;1.50;;;;;;;3.92;60.75;99111.41;10402784;28;20485;-59
2024/03/25 05:07:10;;;;;;;5.35;1.98;;;;;;;3.92;60.35;99115.75;10434489;28;20236;-59
2024/03/25 05:12:11;;;;;;;3.83;2.05;;;;;;;3.87;60.21;99118.53;10416445;28;20544;-59
2024/03/25 05:17:12;;;;;;;3.90;1.77;;;;;;;3.82;60.24;99121.28;10414211;28;20052;-59
2024/03/25 05:22:13;;;;;;;2.45;1.42;;;;;;;3.81;60.21;99127.38;10414287;28;20049;-59
2024/03/25 05:27:15;;;;;;;3.05;1.50;;;;;;;3.67;60.98;99127.16;10431171;28;20527;-59
2024/03/25 05:32:21;;;;;;;5.03;2.13;;;;;;;3.79;60.19;99126.63;10430063;28;20048;-60
2024/03/25 05:37:22;;;;;;;14.65;5.70;;;;;;;3.87;59.96;99134.03;10415075;28;20040;-59
2024/03/25 05:42:23;;;;;;;5.18;2.05;;;;;;;3.96;59.91;99133.66;10429271;28;20496;-59
2024/03/25 05:47:24;;;;;;;4.53;2.03;;;;;;;3.79;60.33;99115.41;10431081;28;20048;-59
2024/03/25 05:52:28;;;;;;;3.67;2.08;;;;;;;3.78;60.62;99134.44;10428831;28;20060;-60
2024/03/25 05:57:29;;;;;;;3.00;1.20;;;;;;;3.70;60.83;99134.75;10411408;28;20136;-60
2024/03/25 06:02:30;;;;;;;2.90;1.58;;;;;;;3.65;61.15;99134.16;10414430;28;20045;-59
2024/03/25 06:07:31;;;;;;;4.25;1.77;;;;;;;3.76;60.64;99131.91;10412740;28;20106;-59
2024/03/25 06:12:32;;;;;;;5.65;1.85;;;;;;;3.81;60.87;99139.47;10429695;28;20048;-59
2024/03/25 06:17:33;;;;;;;8.27;1.85;;;;;;;3.91;60.58;99145.94;10429046;28;20409;-59
2024/03/25 06:22:34;;;;;;;2.42;1.25;;;;;;;3.97;60.38;99140.47;10425914;28;20441;-59
2024/03/25 06:27:36;;;;;;;5.40;1.73;;;;;;;4.04;60.49;99138.47;10411436;28;20123;-59
2024/03/25 06:37:56;;;;;;;9.13;2.08;;;;;;;4.20;60.49;99142.00;10426662;28;20041;-58
2024/03/25 06:42:57;;;;;;;5.65;1.77;;;;;;;4.35;60.19;99142.13;10412042;28;20048;-59
2024/03/25 06:47:58;;;;;;;3.70;1.33;;;;;;;4.55;59.88;99139.47;10429269;28;20057;-59
2024/03/25 06:52:59;;;;;;;2.92;1.55;;;;;;;4.66;59.45;99132.00;10428088;28;20049;-60
2024/03/25 06:58:00;;;;;;;8.25;1.88;;;;;;;4.81;59.27;99140.78;10408211;28;20041;-60
2024/03/25 07:03:01;;;;;;;4.18;1.40;;;;;;;4.89;59.30;99148.16;10426853;28;20037;-60
2024/03/25 07:08:02;;;;;;;2.65;1.67;;;;;;;5.00;59.12;99158.84;10395582;28;20041;-59
2024/03/25 07:13:05;;;;;;;6.82;1.67;;;;;;;5.06;58.88;99164.59;10460954;28;20136;-59
2024/03/25 07:18:06;;;;;;;2.35;1.58;;;;;;;5.11;58.81;99159.16;10422149;28;20057;-59
2024/03/25 07:23:08;;;;;;;2.63;1.50;;;;;;;5.31;58.66;99151.22;10409311;28;20048;-59
2024/03/25 07:28:09;;;;;;;3.13;1.52;;;;;;;5.55;58.40;99155.16;10426189;28;20059;-59
2024/03/25 07:33:09;;;;;;;3.63;1.60;;;;;;;5.57;57.81;99159.31;10428444;28;20045;-59
2024/03/25 07:38:10;;;;;;;5.35;1.70;;;;;;;5.81;58.02;99156.38;10429044;28;20036;-59
2024/03/25 07:43:11;;;;;;;3.83;1.40;;;;;;;6.02;57.43;99153.47;10411146;28;20045;-60
2024/03/25 07:48:12;;;;;;;5.93;1.25;;;;;;;6.54;56.97;99148.06;10412862;28;20103;-59
2024/03/25 07:53:13;;;;;;;3.47;1.52;;;;;;;7.01;56.13;99148.84;10411949;28;20056;-60
2024/03/25 07:58:14;;;;;;;8.63;2.33;;;;;;;7.53;55.29;99144.84;10412682;28;20033;-59
2024/03/25 08:03:16;;;;;;;4.90;1.95;;;;;;;8.53;53.80;99146.44;10429433;28;20084;-59
2024/03/25 08:08:17;;;;;;;6.60;1.65;;;;;;;9.27;52.15;99134.56;10391164;28;20100;-59
2024/03/25 08:13:21;;;;;;;5.00;1.90;;;;;;;9.53;50.42;99136.25;10406623;28;20065;-60
2024/03/25 08:18:22;;;;;;;5.07;1.48;;;;;;;9.64;50.73;99132.91;10408567;28;20131;-59
2024/03/25 08:23:23;;;;;;;2.78;1.63;;;;;;;9.85;50.27;99133.25;10393390;28;20072;-60
2024/03/25 08:28:24;;;;;;;3.70;1.40;;;;;;;9.98;49.78;99141.88;10426671;28;20053;-60
2024/03/25 08:33:25;;;;;;;4.40;1.40;;;;;;;10.43;48.11;99143.88;10433361;28;20048;-59
2024/03/25 08:38:26;;;;;;;5.60;1.95;;;;;;;10.74;48.31;99138.09;10435806;28;20059;-60
2024/03/25 08:43:27;;;;;;;2.30;1.40;;;;;;;10.94;46.48;99134.88;10434615;28;20107;-59
2024/03/25 08:48:28;;;;;;;3.15;1.13;;;;;;;11.32;46.80;99132.88;10436009;28;20401;-60
2024/03/25 08:53:29;;;;;;;3.53;1.50;;;;;;;11.43;45.46;99139.91;10433324;28;20970;-59
2024/03/25 08:58:30;;;;;;;4.53;1.13;;;;;;;11.65;45.79;99139.94;10436086;28;20055;-59
2024/03/25 09:03:32;;;;;;;3.45;1.50;;;;;;;11.62;46.06;99131.50;10417465;28;20057;-59
2024/03/25 09:11:02;;;;;;;4.13;1.30;;;;;;;11.99;44.92;99131.13;10418463;28;20235;-59
2024/03/25 09:13:54;;;;;;;2.75;1.15;;;;;;;11.96;45.38;99122.69;10434152;28;20098;-59
2024/03/25 09:18:55;;;;;;;2.17;0.98;;;;;;;12.46;44.43;99118.72;10434575;28;20602;-60
2024/03/25 09:23:58;;;;;;;3.80;1.52;;;;;;;12.50;43.77;99110.47;10414695;28;20401;-59
2024/03/25 09:28:59;;;;;;;6.88;2.40;;;;;;;12.42;43.52;99112.88;10434697;28;20389;-59
2024/03/25 09:33:59;;;;;;;5.38;1.83;;;;;;;12.59;42.96;99103.66;10431226;28;20052;-60
2024/03/25 09:39:00;;;;;;;4.95;1.55;;;;;;;12.26;42.02;99107.16;10431054;28;20049;-60
2024/03/25 09:44:05;;;;;;;4.50;1.55;;;;;;;11.48;43.27;99102.91;10410248;28;20045;-59
2024/03/25 09:49:06;;;;;;;2.97;1.00;;;;;;;11.59;43.46;99098.50;10430801;28;20525;-60
2024/03/25 09:54:07;;;;;;;5.63;1.58;;;;;;;11.45;42.87;99090.03;10426987;28;20076;-60
2024/03/25 09:59:08;;;;;;;5.70;1.20;;;;;;;11.96;42.19;99086.84;10397443;28;20061;-59
2024/03/25 10:04:09;;;;;;;4.55;1.67;;;;;;;11.84;42.70;99073.88;10412062;28;20618;-61
2024/03/25 10:09:10;;;;;;;3.22;1.55;;;;;;;11.88;42.36;99075.31;10430332;28;20635;-60
2024/03/25 10:14:11;;;;;;;1.00;0.85;;;;;;;11.92;39.15;99071.47;10427935;28;20091;-60
2024/03/25 10:19:12;;;;;;;3.42;1.27;;;;;;;12.24;40.82;99059.28;10430744;28;20443;-60
2024/03/25 10:24:16;;;;;;;3.08;0.90;;;;;;;12.92;40.20;99046.63;10410917;28;20111;-60
2024/03/25 10:29:17;;;;;;;3.63;1.10;;;;;;;13.11;38.96;99038.03;10428790;28;20053;-60
2024/03/25 10:34:19;;;;;;;4.05;1.42;;;;;;;12.12;39.06;99041.91;10459014;28;20147;-60
2024/03/25 10:39:23;;;;;;;3.28;1.20;;;;;;;11.89;40.38;99040.28;10421980;28;20546;-61
2024/03/25 10:44:24;;;;;;;4.30;1.30;;;;;;;12.11;40.03;99034.97;10423621;28;20508;-60
2024/03/25 10:49:34;;;;;;;5.60;1.55;;;;;;;12.41;38.49;99035.19;10425421;28;21064;-60
2024/03/25 10:54:36;;;;;;;3.35;1.33;;;;;;;12.52;39.42;99022.00;10420621;28;20045;-60
2024/03/25 10:59:41;;;;;;;3.60;1.20;;;;;;;12.74;39.22;99011.41;10429366;28;20680;-60
2024/03/25 11:04:43;;;;;;;4.47;1.38;;;;;;;12.40;39.38;99017.78;10411592;28;20603;-61
2024/03/25 11:09:44;;;;;;;5.25;1.30;;;;;;;12.39;38.51;98996.94;10410787;28;20493;-60
2024/03/25 11:14:45;;;;;;;2.15;0.85;;;;;;;12.32;37.73;98985.25;10409029;28;20049;-60
2024/03/25 11:19:46;;;;;;;2.03;1.13;;;;;;;12.64;38.81;98979.03;10426578;28;20041;-60
2024/03/25 11:24:47;;;;;;;0.98;0.73;;;;;;;12.75;38.71;98978.16;10405818;28;20084;-61
2024/03/25 11:29:48;;;;;;;1.58;0.73;;;;;;;12.59;36.86;98962.88;10442761;28;20041;-61
2024/03/25 11:34:51;;;;;;;0.80;0.73;;;;;;;12.66;38.44;98957.94;10422974;28;20045;-61
2024/03/25 11:40:03;;;;;;;2.03;1.38;;;;;;;12.71;35.94;98940.84;10406362;28;20455;-61
2024/03/25 11:45:14;;;;;;;1.40;1.25;;;;;;;12.71;36.27;98929.50;10395021;28;20053;-61
2024/03/25 11:50:17;;;;;;;3.03;1.17;;;;;;;12.48;36.32;98915.69;10409697;28;20041;-61
2024/03/25 11:55:18;;;;;;;1.98;0.90;;;;;;;12.42;37.28;98908.34;10421513;28;20049;-61
2024/03/25 12:00:20;;;;;;;1.63;1.00;;;;;;;12.59;36.91;98912.19;10424974;28;20049;-60
2024/03/25 12:05:21;;;;;;;1.88;1.05;;;;;;;12.46;34.79;98899.25;10424141;28;20055;-61
2024/03/25 12:15:42;;;;;;;2.47;1.23;;;;;;;12.50;36.32;98884.09;10432742;28;20052;-61
2024/03/25 12:20:45;;;;;;;2.35;1.00;;;;;;;12.95;36.07;98865.28;10418697;28;20056;-61
2024/03/25 12:25:50;;;;;;;3.28;1.23;;;;;;;13.44;34.55;98855.78;10387505;28;20095;-61
2024/03/25 12:30:53;;;;;;;4.07;1.10;;;;;;;13.31;34.51;98837.59;10426613;28;20087;-61
2024/03/25 12:35:54;;;;;;;4.97;1.25;;;;;;;13.09;35.30;98834.41;10426415;28;20627;-62
2024/03/25 12:41:12;;;;;;;1.33;0.70;;;;;;;13.21;34.52;98834.13;10427392;28;20504;-61
2024/03/25 12:46:13;;;;;;;2.10;0.77;;;;;;;12.98;36.06;98827.47;10424977;28;20144;-61
2024/03/25 12:51:15;;;;;;;4.30;1.15;;;;;;;12.47;35.84;98811.78;10410526;28;20120;-61
2024/03/25 12:56:17;;;;;;;1.70;1.05;;;;;;;12.50;36.01;98800.19;10425867;28;20109;-61
2024/03/25 13:01:18;;;;;;;1.17;0.80;;;;;;;12.77;35.93;98798.66;10425754;28;20128;-61
2024/03/25 13:06:19;;;;;;;2.33;1.00;;;;;;;12.53;35.30;98795.53;10425820;28;20045;-61
2024/03/25 13:11:20;;;;;;;4.05;0.90;;;;;;;11.93;33.98;98795.41;10376325;28;20052;-61
2024/03/25 13:16:21;;;;;;;2.28;0.90;;;;;;;12.06;35.60;98773.31;10427876;28;20418;-62
2024/03/25 13:21:22;;;;;;;1.38;1.10;;;;;;;12.45;34.96;98769.13;10433772;28;20052;-61
2024/03/25 13:26:23;;;;;;;1.88;1.02;;;;;;;12.43;36.09;98767.59;10432982;28;20501;-61
2024/03/25 13:31:24;;;;;;;2.33;0.90;;;;;;;12.49;36.19;98760.03;10434616;28;20048;-62
2024/03/25 13:36:25;;;;;;;2.17;0.90;;;;;;;12.50;36.44;98755.59;10433079;28;20596;-61
2024/03/25 13:41:26;;;;;;;2.17;0.95;;;;;;;12.49;35.92;98748.72;10417331;28;20045;-61
2024/03/25 13:46:27;;;;;;;2.65;0.77;;;;;;;12.38;35.62;98739.13;10432012;28;20136;-61
2024/03/25 13:51:28;;;;;;;0.93;0.60;;;;;;;12.24;35.89;98736.00;10431847;28;20049;-61
2024/03/25 13:56:29;;;;;;;3.17;1.17;;;;;;;12.12;35.69;98727.41;10432231;28;20044;-61
2024/03/25 14:01:30;;;;;;;2.38;1.10;;;;;;;11.72;36.38;98721.25;10432757;28;20440;-60
2024/03/25 14:06:32;;;;;;;5.22;1.10;;;;;;;11.71;35.45;98716.94;10430571;28;20052;-61
2024/03/25 14:11:33;;;;;;;2.83;0.93;;;;;;;11.73;35.65;98708.00;10430202;28;20045;-61
2024/03/25 14:16:34;;;;;;;2.55;0.90;;;;;;;12.07;36.16;98705.97;10398663;28;20040;-60
2024/03/25 14:21:36;;;;;;;2.55;1.02;;;;;;;12.40;36.05;98683.94;10430577;28;20056;-61
2024/03/25 14:26:36;;;;;;;3.30;1.00;;;;;;;12.39;35.49;98682.28;10430225;28;20048;-61
2024/03/25 14:31:37;;;;;;;1.25;0.90;;;;;;;12.10;34.57;98684.75;10432354;28;20452;-61
2024/03/25 14:36:38;;;;;;;1.15;0.95;;;;;;;11.62;34.82;98678.44;10430172;28;20040;-61
2024/03/25 14:41:40;;;;;;;1.92;0.98;;;;;;;11.92;36.02;98660.13;10415510;28;20057;-61
2024/03/25 14:46:41;;;;;;;5.00;1.48;;;;;;;12.19;35.12;98652.53;10429786;28;20852;-61
2024/03/25 14:51:42;;;;;;;1.95;1.00;;;;;;;12.29;36.32;98640.31;10428692;28;20040;-61
2024/03/25 14:56:43;;;;;;;2.22;1.30;;;;;;;12.42;36.02;98640.06;10426568;28;20044;-61
2024/03/25 15:01:45;;;;;;;2.60;1.00;;;;;;;12.30;35.51;98644.59;10411293;28;20041;-60
2024/03/25 15:06:46;;;;;;;0.98;0.60;;;;;;;12.41;36.05;98623.53;10396256;28;20448;-61
2024/03/25 15:11:48;;;;;;;2.78;1.63;;;;;;;12.35;36.22;98600.47;10413163;28;20053;-61
2024/03/25 15:16:50;;;;;;;1.63;0.70;;;;;;;12.60;36.09;98584.19;10432470;28;20056;-61
2024/03/25 15:21:51;;;;;;;2.00;1.00;;;;;;;12.46;34.93;98597.69;10433858;28;20077;-61
2024/03/25 15:26:52;;;;;;;2.33;0.82;;;;;;;12.31;35.27;98593.00;10398902;28;20672;-62
2024/03/25 15:31:53;;;;;;;2.33;0.95;;;;;;;12.22;35.29;98575.41;10416720;28;20048;-61
2024/03/25 15:36:54;;;;;;;3.28;1.13;;;;;;;12.31;33.30;98580.72;10416282;28;21097;-61
2024/03/25 15:41:54;;;;;;;1.80;0.88;;;;;;;12.35;34.57;98576.03;10432411;28;20239;-61
2024/03/25 15:46:56;;;;;;;2.60;1.00;;;;;;;12.19;34.98;98576.53;10431082;28;20757;-61
2024/03/25 15:51:57;;;;;;;2.97;1.20;;;;;;;12.04;35.97;98564.75;10432563;28;20160;-61
2024/03/25 15:56:58;;;;;;;0.80;0.73;;;;;;;11.90;34.64;98563.34;10430791;28;20744;-61
2024/03/25 16:01:59;;;;;;;4.93;1.30;;;;;;;11.71;35.61;98555.41;10414481;28;20040;-62
2024/03/25 16:07:00;;;;;;;2.15;1.05;;;;;;;11.89;34.20;98547.72;10428143;28;20045;-61
2024/03/25 16:12:02;;;;;;;5.07;1.50;;;;;;;12.15;35.57;98538.41;10412091;28;20056;-61
2024/03/25 16:17:03;;;;;;;4.68;1.58;;;;;;;12.09;35.57;98534.56;10429082;28;20475;-61
2024/03/25 16:22:06;;;;;;;3.20;1.02;;;;;;;12.33;35.67;98526.38;10426704;28;20079;-61
2024/03/25 16:27:07;;;;;;;2.85;1.13;;;;;;;12.17;35.79;98533.91;10428450;28;20057;-61
2024/03/25 16:32:08;;;;;;;4.20;1.63;;;;;;;11.99;36.16;98525.84;10428495;28;20560;-61
2024/03/25 16:37:10;;;;;;;3.20;1.20;;;;;;;11.82;36.38;98515.19;10426258;28;20128;-61
2024/03/25 16:42:11;;;;;;;2.08;1.20;;;;;;;11.57;36.57;98520.88;10438315;28;20389;-61
2024/03/25 16:47:12;;;;;;;4.15;1.20;;;;;;;11.20;37.08;98524.03;10422761;28;20048;-61
2024/03/25 16:52:16;;;;;;;5.85;1.60;;;;;;;10.98;37.69;98516.28;10428359;28;20052;-60
2024/03/25 16:57:17;;;;;;;2.85;1.30;;;;;;;10.91;37.33;98519.56;10432565;28;20144;-61
2024/03/25 17:02:18;;;;;;;2.97;0.85;;;;;;;10.73;36.85;98526.28;10398808;28;20053;-61
2024/03/25 17:07:19;;;;;;;2.97;0.88;;;;;;;10.55;36.58;98519.94;10431891;28;20049;-60
2024/03/25 17:12:21;;;;;;;1.73;0.85;;;;;;;10.30;36.73;98524.56;10435111;28;20049;-60
2024/03/25 17:17:23;;;;;;;1.65;1.10;;;;;;;10.15;36.72;98519.75;10436107;28;20084;-61
2024/03/25 17:22:24;;;;;;;2.33;1.42;;;;;;;9.95;36.79;98518.72;10435864;28;20059;-61
2024/03/25 17:27:25;;;;;;;4.28;1.15;;;;;;;9.73;37.29;98515.34;10435681;28;20057;-60
2024/03/25 17:32:26;;;;;;;2.42;0.85;;;;;;;9.54;37.64;98519.31;10436598;28;20048;-60
2024/03/25 17:37:27;;;;;;;3.80;1.30;;;;;;;9.40;38.14;98511.72;10436264;28;20118;-60
2024/03/25 17:42:28;;;;;;;3.15;1.52;;;;;;;9.28;38.43;98506.66;10436605;28;20052;-60
2024/03/25 17:47:29;;;;;;;4.07;1.58;;;;;;;9.16;39.28;98511.00;10419539;28;20110;-60
2024/03/25 17:52:30;;;;;;;7.30;2.13;;;;;;;8.99;40.17;98511.47;10435343;28;20052;-60
2024/03/25 17:57:32;;;;;;;2.50;1.20;;;;;;;8.79;41.26;98501.72;10435370;28;20049;-60
2024/03/25 18:02:33;;;;;;;2.38;1.00;;;;;;;8.58;41.79;98495.50;10435297;28;20408;-60
2024/03/25 18:07:34;;;;;;;3.58;0.80;;;;;;;8.53;41.83;98498.44;10435411;28;20156;-59
2024/03/25 18:12:35;;;;;;;3.58;1.45;;;;;;;8.49;42.06;98497.00;10434761;28;20095;-59
2024/03/25 18:17:38;;;;;;;2.67;1.55;;;;;;;8.35;42.26;98496.34;10435310;28;20445;-59
2024/03/25 18:22:39;;;;;;;2.53;0.90;;;;;;;8.25;42.59;98484.94;10418749;28;20060;-58
2024/03/25 18:27:40;;;;;;;2.38;1.17;;;;;;;8.19;43.10;98477.56;10433011;28;20044;-59
2024/03/25 18:32:45;;;;;;;4.53;1.45;;;;;;;8.08;43.40;98473.13;10432680;28;20041;-59
2024/03/25 18:37:47;;;;;;;2.53;1.00;;;;;;;8.04;43.81;98467.31;10412775;28;20041;-58
2024/03/25 18:42:48;;;;;;;1.80;1.00;;;;;;;8.02;44.14;98466.59;10410543;28;20536;-58
2024/03/25 18:47:49;;;;;;;2.30;1.02;;;;;;;7.97;43.73;98460.06;10430492;28;20123;-58
2024/03/25 18:52:50;;;;;;;3.55;1.63;;;;;;;7.91;43.93;98456.13;10413743;28;20094;-58
2024/03/25 18:57:51;;;;;;;3.17;1.58;;;;;;;7.80;44.35;98458.66;10429587;28;20116;-58
2024/03/25 19:02:52;;;;;;;3.95;1.10;;;;;;;7.82;43.91;98462.00;10433207;28;20045;-58
2024/03/25 19:07:53;;;;;;;2.55;1.20;;;;;;;7.74;43.80;98455.66;10415045;28;20456;-58
2024/03/25 19:12:54;;;;;;;3.50;1.50;;;;;;;7.67;43.93;98457.88;10426484;28;20061;-59
2024/03/25 19:17:55;;;;;;;2.40;1.25;;;;;;;7.59;44.10;98457.59;10429338;28;21276;-58
2024/03/25 19:22:57;;;;;;;2.60;0.93;;;;;;;7.53;44.19;98460.63;10428996;28;20049;-58
2024/03/25 19:27:59;;;;;;;3.50;1.17;;;;;;;7.49;44.38;98453.16;10426331;28;20053;-58
2024/03/25 19:33:00;;;;;;;4.60;1.45;;;;;;;7.37;44.54;98448.78;10416927;28;20480;-58
2024/03/25 19:38:03;;;;;;;3.53;1.40;;;;;;;7.23;45.11;98434.16;10433297;28;20044;-58
2024/03/25 19:43:04;;;;;;;1.48;1.20;;;;;;;7.15;44.90;98433.88;10432538;28;20811;-58
2024/03/25 19:48:05;;;;;;;2.20;0.88;;;;;;;7.07;44.86;98433.56;10433008;28;20040;-58
2024/03/25 19:53:06;;;;;;;4.28;1.17;;;;;;;7.01;45.71;98423.59;10432179;28;20386;-58
2024/03/25 19:58:07;;;;;;;1.42;0.88;;;;;;;6.88;45.72;98425.38;10428863;28;20038;-58
2024/03/25 20:03:09;;;;;;;4.15;1.45;;;;;;;6.81;45.65;98432.78;10426859;28;20107;-58
2024/03/25 20:08:10;;;;;;;3.72;1.40;;;;;;;6.74;45.69;98433.28;10408353;28;20037;-58
2024/03/25 20:13:11;;;;;;;3.15;2.17;;;;;;;6.55;46.26;98427.66;10406972;28;20511;-59
2024/03/25 20:18:13;;;;;;;7.07;1.73;;;;;;;6.54;46.30;98411.25;10406902;28;20098;-58
2024/03/25 20:23:14;;;;;;;6.82;1.52;;;;;;;6.56;46.52;98411.13;10431238;28;20508;-59
2024/03/25 20:28:15;;;;;;;4.72;1.52;;;;;;;6.48;46.24;98403.88;10431321;28;20041;-58
2024/03/25 20:33:16;;;;;;;2.75;1.55;;;;;;;6.47;46.76;98406.59;10412657;28;20566;-58
2024/03/25 20:38:19;;;;;;;3.25;1.50;;;;;;;6.41;46.27;98404.41;10431375;28;20049;-58
2024/03/25 20:43:21;;;;;;;1.77;1.35;;;;;;;6.28;46.44;98397.44;10415147;28;20132;-58
2024/03/25 20:48:22;;;;;;;4.07;1.42;;;;;;;6.28;46.89;98389.63;10429392;28;20041;-58
2024/03/25 20:53:25;;;;;;;2.50;1.45;;;;;;;6.27;47.04;98389.72;10407781;28;20858;-58
2024/03/25 20:58:28;;;;;;;4.25;1.52;;;;;;;6.25;47.08;98384.63;10411395;28;20489;-57
2024/03/25 21:03:30;;;;;;;5.63;1.35;;;;;;;6.14;46.98;98373.28;10412426;28;20044;-58
2024/03/25 21:08:31;;;;;;;2.50;1.50;;;;;;;6.03;46.91;98368.78;10413806;28;20128;-58
2024/03/25 21:13:33;;;;;;;5.18;1.27;;;;;;;5.94;46.66;98374.56;10428935;28;20592;-58
2024/03/25 21:18:35;;;;;;;3.97;1.40;;;;;;;5.81;46.91;98370.28;10430110;28;20076;-59
2024/03/25 21:23:37;;;;;;;5.07;1.50;;;;;;;5.71;47.09;98364.88;10413897;28;20492;-59
2024/03/25 21:28:38;;;;;;;4.03;1.80;;;;;;;5.64;46.82;98354.97;10429874;28;20041;-59
2024/03/25 21:33:41;;;;;;;3.33;1.60;;;;;;;5.63;46.69;98353.34;10430307;28;20091;-59
2024/03/25 21:38:42;;;;;;;6.00;1.50;;;;;;;5.61;46.54;98350.00;10434892;28;20916;-59
2024/03/25 21:43:44;;;;;;;3.08;1.42;;;;;;;5.45;46.82;98343.22;10436254;28;20053;-59
2024/03/25 21:48:46;;;;;;;3.38;1.63;;;;;;;5.43;46.77;98344.25;10437338;28;20048;-59
2024/03/25 21:53:47;;;;;;;5.90;2.05;;;;;;;5.43;46.73;98339.88;10437013;28;20041;-60
2024/03/25 21:58:52;;;;;;;4.35;1.50;;;;;;;5.43;47.00;98339.06;10420803;28;20558;-59
2024/03/25 22:03:53;;;;;;;2.97;1.48;;;;;;;5.31;47.48;98342.44;10435941;28;20056;-59
2024/03/25 22:08:55;;;;;;;4.22;1.85;;;;;;;5.35;47.11;98331.75;10436028;28;20492;-59
2024/03/25 22:13:55;;;;;;;3.38;1.60;;;;;;;5.37;47.17;98334.28;10435334;28;20045;-59
2024/03/25 22:18:56;;;;;;;2.90;1.30;;;;;;;5.45;46.99;98332.03;10435991;28;20448;-59
2024/03/25 22:23:57;;;;;;;3.65;1.23;;;;;;;5.50;46.94;98324.78;10435620;28;20412;-59
2024/03/25 22:28:58;;;;;;;3.75;1.25;;;;;;;5.46;47.10;98323.31;10435525;28;20508;-59
2024/03/25 22:34:00;;;;;;;3.63;1.55;;;;;;;5.43;46.92;98316.53;10435331;28;20041;-59
2024/03/25 22:39:03;;;;;;;3.63;1.08;;;;;;;5.46;47.20;98312.94;10435986;28;20045;-59
2024/03/25 22:44:04;;;;;;;7.95;2.00;;;;;;;5.46;47.28;98310.34;10434579;28;20059;-59
2024/03/25 22:49:05;;;;;;;4.90;1.35;;;;;;;5.35;47.47;98302.44;10419273;28;20036;-60
2024/03/25 22:54:06;;;;;;;5.55;1.50;;;;;;;5.21;47.68;98310.25;10433525;28;20048;-59
2024/03/25 22:59:07;;;;;;;2.63;1.60;;;;;;;5.16;47.91;98302.78;10417569;28;20091;-59
2024/03/25 23:04:08;;;;;;;3.60;1.35;;;;;;;5.13;47.91;98297.78;10449952;28;20135;-59
2024/03/25 23:09:10;;;;;;;4.65;2.25;;;;;;;5.06;48.16;98287.91;10416896;28;20045;-59
2024/03/25 23:14:11;;;;;;;4.05;1.40;;;;;;;5.03;48.53;98285.50;10433822;28;20059;-59
2024/03/25 23:19:12;;;;;;;3.35;1.80;;;;;;;4.98;49.01;98279.78;10417240;28;20041;-60
2024/03/25 23:24:13;;;;;;;2.78;1.50;;;;;;;4.80;49.38;98274.00;10416808;28;20068;-59
2024/03/25 23:29:14;;;;;;;5.43;2.47;;;;;;;4.76;49.67;98275.09;10416350;28;20048;-59
2024/03/25 23:34:15;;;;;;;4.18;2.00;;;;;;;4.60;50.48;98280.41;10433110;28;20045;-59
2024/03/25 23:39:16;;;;;;;3.33;1.80;;;;;;;4.55;50.59;98274.72;10433443;28;20107;-59